Hovedside
METAR-TAF:

METAR-TAF

Lufthavner :

Sørkjosen lufthavn

Sørkjosen, Norge

breddegrad: 69-47N, lengdegrad: 020-58E, høyde over havet: 0 m

Gjeldene værobservasjon

Denne rapporten ble laget for 44 minutter siden, klokken 09:20 UTC
Vind 3 kt fra Øst, skiftende mellom Øst-nordøst og Sørøst
Temperatur -6°C
Luftfuktighet 86%
Trykk 1008 hPa
Sikt 10 km eller mer
Få skyer i en høyde av 1900 ft
Spredte skyer i en høyde av 3000 ft
Brutte skyer i en høyde av 4000 ft
lette snøbyger

METAR: ENSR 100920Z 15003KT 9999 -SHSN FEW019 SCT030 BKN040 M06/M08 Q1008 WIND 1119FT 10003KT 060V140

Tid: 11:04 (10:04 UTC)


TAF: fraværende

Værobservasjoner og værvarsel for over 4000 flyplasser (METAR- og TAF-rapporter).

Tilgjengelige stasjoner er representert av de røde og gule prikkene på kartet.

Hold musepekeren over prikken for å se navnet på stasjonen.

Klikk så for å se værobservasjoner og -varsler.

For å forandre kartet kan du klikke på den grønne knappen med svart kryss for å zoome inn, på den grønne knappen med strek for å zoome ut, eller på de grønne pilene for å se tilstøtende kart.


METAR-TAF: